Time;durP1;ratioP1;P1;durP2;ratioP2;P2;SDS_P1;SDS_P2;PMS_P1;PMS_P2;Temp;Humidity;BMP_temperature;BMP_pressure;BME280_temperature;BME280_humidity;BME280_pressure;Samples;Min_cycle;Max_cycle;Signal;HPM_P1;HPM_P2
2023/11/27 00:01:28;;;;;;;7.40;5.07;;;3.40;13.30;;;;;;7378713;19;20018;-69
2023/11/27 00:03:58;;;;;;;9.02;4.78;;;3.40;10.60;;;;;;7378277;19;20511;-69
2023/11/27 00:06:28;;;;;;;5.28;4.18;;;3.40;12.30;;;;;;7378918;19;20014;-69
2023/11/27 00:09:01;;;;;;;7.85;4.38;;;3.40;14.40;;;;;;7378661;19;20013;-70
2023/11/27 00:11:31;;;;;;;6.50;4.50;;;3.40;16.90;;;;;;7379713;19;20014;-69
2023/11/27 00:14:01;;;;;;;7.82;4.70;;;3.30;17.00;;;;;;7378433;19;20018;-69
2023/11/27 00:16:31;;;;;;;6.00;4.82;;;3.30;21.30;;;;;;7377786;19;20354;-69
2023/11/27 00:19:01;;;;;;;6.63;4.45;;;3.30;24.60;;;;;;7378398;19;20006;-70
2023/11/27 00:21:31;;;;;;;10.63;6.15;;;3.30;27.50;;;;;;7378257;19;20027;-69
2023/11/27 00:24:04;;;;;;;8.15;5.43;;;3.30;26.30;;;;;;7375369;19;20011;-69
2023/11/27 00:26:34;;;;;;;7.55;5.18;;;3.30;27.10;;;;;;7377657;19;20032;-69
2023/11/27 00:29:05;;;;;;;7.50;5.63;;;3.20;28.50;;;;;;7379669;19;20022;-69
2023/11/27 00:31:35;;;;;;;6.68;5.18;;;3.30;32.00;;;;;;7376614;19;20375;-69
2023/11/27 00:34:05;;;;;;;8.70;4.97;;;3.30;33.00;;;;;;7378499;19;20014;-69
2023/11/27 00:36:36;;;;;;;8.23;5.05;;;3.30;32.80;;;;;;7377383;19;20006;-69
2023/11/27 00:39:09;;;;;;;7.70;5.43;;;3.30;32.50;;;;;;7378294;19;20014;-69
2023/11/27 00:41:39;;;;;;;6.55;4.40;;;3.20;37.30;;;;;;7379121;19;20403;-69
2023/11/27 00:44:09;;;;;;;6.60;5.55;;;3.20;35.60;;;;;;7378960;19;20010;-70
2023/11/27 00:46:39;;;;;;;8.75;5.63;;;3.20;35.00;;;;;;7378188;19;20022;-69
2023/11/27 00:49:09;;;;;;;7.00;5.13;;;3.20;35.80;;;;;;7378650;19;20002;-70
2023/11/27 00:51:39;;;;;;;7.43;5.28;;;3.20;32.70;;;;;;7378054;19;20014;-69
2023/11/27 00:54:12;;;;;;;8.45;5.93;;;3.20;29.90;;;;;;7377982;19;20082;-69
2023/11/27 00:56:42;;;;;;;7.88;4.90;;;3.20;24.10;;;;;;7384366;19;20014;-69
2023/11/27 00:59:12;;;;;;;6.43;4.97;;;3.20;24.00;;;;;;7400423;19;20006;-69
2023/11/27 01:01:42;;;;;;;6.78;5.28;;;3.20;24.50;;;;;;7383341;19;20031;-69
2023/11/27 01:04:13;;;;;;;7.20;5.13;;;3.20;25.40;;;;;;7377445;19;20014;-69
2023/11/27 01:06:43;;;;;;;6.45;4.75;;;3.10;25.90;;;;;;7377985;19;20074;-69
2023/11/27 01:09:17;;;;;;;10.27;5.32;;;3.10;27.40;;;;;;7378379;19;20010;-69
2023/11/27 01:11:47;;;;;;;6.63;5.05;;;3.10;26.90;;;;;;7375474;19;20006;-68
2023/11/27 01:14:17;;;;;;;9.02;5.20;;;3.10;26.30;;;;;;7375247;19;20014;-69
2023/11/27 01:16:47;;;;;;;7.35;5.25;;;3.10;26.40;;;;;;7377069;19;20028;-68
2023/11/27 01:19:17;;;;;;;7.13;4.63;;;3.10;27.20;;;;;;7377112;19;20106;-69
2023/11/27 01:21:47;;;;;;;10.23;5.30;;;3.10;28.40;;;;;;7377507;19;20015;-70
2023/11/27 01:24:21;;;;;;;8.13;5.38;;;3.10;28.20;;;;;;7374455;19;20027;-68
2023/11/27 01:26:53;;;;;;;7.10;5.13;;;3.10;26.10;;;;;;7375858;19;20014;-69
2023/11/27 01:29:23;;;;;;;6.75;5.20;;;3.10;24.90;;;;;;7376148;19;20034;-69
2023/11/27 01:31:54;;;;;;;6.55;4.80;;;3.10;23.90;;;;;;7375907;19;20027;-68
2023/11/27 01:34:24;;;;;;;6.30;5.05;;;3.10;24.30;;;;;;7375088;19;20011;-68
2023/11/27 01:36:54;;;;;;;7.57;5.40;;;3.00;26.30;;;;;;7376021;19;20375;-69
2023/11/27 01:39:27;;;;;;;8.90;5.65;;;3.00;29.20;;;;;;7376346;19;20474;-69
2023/11/27 01:41:57;;;;;;;9.48;5.68;;;3.00;33.20;;;;;;7376848;19;20013;-69
2023/11/27 01:44:27;;;;;;;10.02;5.57;;;3.00;33.90;;;;;;7376348;19;20009;-69
2023/11/27 01:46:58;;;;;;;7.03;5.22;;;3.00;36.00;;;;;;7376371;19;20031;-69
2023/11/27 01:49:28;;;;;;;9.57;5.22;;;3.00;36.80;;;;;;7375413;19;20011;-69
2023/11/27 01:51:59;;;;;;;9.77;5.70;;;2.90;35.00;;;;;;7377167;19;20074;-69
2023/11/27 01:54:36;;;;;;;9.32;5.60;;;2.90;38.10;;;;;;7376370;19;20151;-69
2023/11/27 01:57:07;;;;;;;10.52;5.32;;;3.00;39.10;;;;;;7376583;19;20044;-69
2023/11/27 01:59:38;;;;;;;9.48;5.13;;;2.90;34.30;;;;;;7377043;19;20535;-69
2023/11/27 02:02:09;;;;;;;9.32;5.15;;;2.90;32.50;;;;;;7377015;19;20003;-69
2023/11/27 02:04:40;;;;;;;8.65;4.70;;;3.00;32.80;;;;;;7376350;19;20007;-69
2023/11/27 02:07:10;;;;;;;6.60;4.78;;;3.00;29.80;;;;;;7375610;19;20360;-68
2023/11/27 02:09:43;;;;;;;6.10;4.43;;;3.00;30.80;;;;;;7377507;19;20102;-69
2023/11/27 02:12:15;;;;;;;7.03;4.60;;;3.00;27.50;;;;;;7378245;19;20017;-69
2023/11/27 02:14:45;;;;;;;6.47;4.88;;;3.00;31.80;;;;;;7377515;19;20102;-69
2023/11/27 02:17:15;;;;;;;8.75;4.00;;;3.00;27.60;;;;;;7377545;19;20097;-70
2023/11/27 02:19:45;;;;;;;7.90;4.35;;;3.00;26.70;;;;;;7376623;19;20035;-69
2023/11/27 02:22:15;;;;;;;7.50;4.07;;;3.00;24.40;;;;;;7374450;19;20094;-70
2023/11/27 02:24:48;;;;;;;8.55;4.45;;;2.90;22.80;;;;;;7376114;19;20075;-69
2023/11/27 02:27:18;;;;;;;7.68;4.50;;;2.90;21.90;;;;;;7369167;19;20010;-69
2023/11/27 02:29:48;;;;;;;9.80;4.78;;;3.00;21.30;;;;;;7374354;19;20093;-70
2023/11/27 02:32:18;;;;;;;5.78;4.47;;;3.00;17.30;;;;;;7373864;19;20010;-69
2023/11/27 02:34:49;;;;;;;8.23;4.45;;;3.00;14.00;;;;;;7373188;19;20102;-69
2023/11/27 02:37:20;;;;;;;6.18;4.38;;;3.00;14.30;;;;;;7374706;19;20010;-69
2023/11/27 02:39:53;;;;;;;5.28;4.20;;;3.00;16.90;;;;;;7373078;19;20014;-69
2023/11/27 02:42:23;;;;;;;6.22;4.85;;;3.00;16.80;;;;;;7374817;19;20009;-70
2023/11/27 02:44:53;;;;;;;5.75;4.32;;;3.00;14.80;;;;;;7372960;19;20010;-69
2023/11/27 02:47:24;;;;;;;8.05;4.78;;;2.90;16.50;;;;;;7379942;19;20401;-70
2023/11/27 02:49:54;;;;;;;7.72;4.50;;;2.90;20.20;;;;;;7381015;19;20021;-69
2023/11/27 02:52:24;;;;;;;4.90;3.88;;;2.90;19.90;;;;;;7380711;19;20010;-69
2023/11/27 02:54:56;;;;;;;5.15;3.65;;;2.90;17.80;;;;;;7378854;19;20127;-70
2023/11/27 02:57:27;;;;;;;6.30;4.13;;;2.90;18.80;;;;;;7381403;19;20013;-69
2023/11/27 02:59:57;;;;;;;7.40;4.03;;;2.90;17.40;;;;;;7380736;19;20537;-69
2023/11/27 03:02:27;;;;;;;5.38;3.95;;;2.90;19.20;;;;;;7379977;19;20014;-69
2023/11/27 03:04:57;;;;;;;7.18;4.25;;;3.00;19.30;;;;;;7379956;19;20011;-69
2023/11/27 03:07:27;;;;;;;6.50;3.78;;;2.90;17.40;;;;;;7379383;19;20019;-70
2023/11/27 03:10:00;;;;;;;4.90;4.10;;;3.00;15.40;;;;;;7380240;19;20705;-69
2023/11/27 03:12:31;;;;;;;6.05;3.80;;;2.90;13.80;;;;;;7380261;19;20047;-70
2023/11/27 03:15:01;;;;;;;4.18;3.60;;;2.90;14.40;;;;;;7379795;19;20073;-69
2023/11/27 03:17:31;;;;;;;5.13;3.53;;;2.90;12.40;;;;;;7379118;19;20014;-69
2023/11/27 03:20:01;;;;;;;4.95;4.18;;;2.90;13.80;;;;;;7378718;19;20669;-69
2023/11/27 03:22:31;;;;;;;5.88;3.65;;;2.90;13.40;;;;;;7379877;19;20010;-69
2023/11/27 03:25:06;;;;;;;5.47;3.95;;;2.90;16.20;;;;;;7379270;19;20014;-69
2023/11/27 03:27:39;;;;;;;5.60;3.95;;;2.90;21.30;;;;;;7397060;19;20097;-69
2023/11/27 03:30:10;;;;;;;6.55;3.55;;;2.90;24.90;;;;;;7398239;19;20033;-69
2023/11/27 03:32:40;;;;;;;7.38;4.25;;;2.90;24.20;;;;;;7380739;19;23133;-69
2023/11/27 03:35:11;;;;;;;4.93;3.50;;;2.90;19.80;;;;;;7367494;19;20014;-69
2023/11/27 03:37:45;;;;;;;6.40;3.33;;;3.00;9.30;;;;;;7380638;19;20477;-70
2023/11/27 03:40:18;;;;;;;5.18;3.33;;;3.00;5.40;;;;;;7381377;19;20402;-70
2023/11/27 03:42:48;;;;;;;5.07;3.45;;;3.00;1.60;;;;;;7378627;19;20373;-70
2023/11/27 03:45:18;;;;;;;5.05;3.40;;;3.00;1.00;;;;;;7380009;19;20010;-69
2023/11/27 03:47:48;;;;;;;5.18;3.60;;;3.00;1.00;;;;;;7377721;19;20015;-69
2023/11/27 03:50:19;;;;;;;5.55;3.10;;;3.00;1.00;;;;;;7379455;19;20011;-69
2023/11/27 03:52:50;;;;;;;8.57;3.88;;;3.00;1.00;;;;;;7380047;19;20047;-69
2023/11/27 03:55:24;;;;;;;6.85;3.78;;;3.00;2.70;;;;;;7375706;19;20014;-69
2023/11/27 03:57:54;;;;;;;5.78;3.88;;;3.00;1.30;;;;;;7378831;19;20477;-69
2023/11/27 04:00:25;;;;;;;8.63;3.83;;;3.10;1.00;;;;;;7375274;19;20014;-70
2023/11/27 04:02:55;;;;;;;5.72;3.80;;;3.10;1.00;;;;;;7379722;19;20017;-69
2023/11/27 04:05:25;;;;;;;6.72;3.55;;;3.00;1.00;;;;;;7378542;19;20002;-69
2023/11/27 04:07:56;;;;;;;6.90;3.85;;;3.00;1.00;;;;;;7378412;19;20013;-70
2023/11/27 04:10:28;;;;;;;9.20;3.80;;;3.00;1.00;;;;;;7378972;19;19998;-69
2023/11/27 04:12:58;;;;;;;5.63;4.20;;;3.00;1.00;;;;;;7378211;19;20522;-69
2023/11/27 04:15:29;;;;;;;6.13;4.32;;;2.90;1.00;;;;;;7376312;19;20351;-67
2023/11/27 04:18:00;;;;;;;6.32;4.13;;;2.80;1.00;;;;;;7380632;19;20018;-70
2023/11/27 04:20:30;;;;;;;5.97;4.50;;;2.80;1.00;;;;;;7376491;19;20513;-70
2023/11/27 04:23:00;;;;;;;6.43;4.18;;;2.80;1.00;;;;;;7378471;19;20015;-69
2023/11/27 04:25:33;;;;;;;5.88;4.00;;;2.80;1.00;;;;;;7377694;19;20142;-69
2023/11/27 04:28:03;;;;;;;5.70;4.28;;;2.80;1.70;;;;;;7377528;19;20015;-69
2023/11/27 04:30:33;;;;;;;7.35;4.53;;;2.80;4.50;;;;;;7378488;19;20018;-69
2023/11/27 04:33:04;;;;;;;7.13;4.50;;;2.80;5.20;;;;;;7378453;19;20018;-71
2023/11/27 04:35:34;;;;;;;6.18;4.18;;;2.80;6.30;;;;;;7375544;19;20037;-69
2023/11/27 04:38:04;;;;;;;6.47;4.03;;;2.80;9.20;;;;;;7378240;19;20035;-68
2023/11/27 04:40:37;;;;;;;6.97;4.95;;;2.70;9.20;;;;;;7377650;19;20031;-68
2023/11/27 04:43:07;;;;;;;6.13;3.90;;;2.80;13.80;;;;;;7378454;19;20028;-68
2023/11/27 04:45:37;;;;;;;6.50;4.43;;;2.80;14.50;;;;;;7377106;19;20167;-70
2023/11/27 04:48:07;;;;;;;7.60;5.20;;;2.70;13.20;;;;;;7376145;19;20007;-69
2023/11/27 04:50:37;;;;;;;7.25;4.95;;;2.70;13.80;;;;;;7377277;19;20552;-68
2023/11/27 04:53:08;;;;;;;9.18;4.93;;;2.70;16.10;;;;;;7377904;19;20506;-68
2023/11/27 04:55:41;;;;;;;6.53;4.35;;;2.60;17.50;;;;;;7376109;19;20035;-69
2023/11/27 04:58:11;;;;;;;4.95;4.10;;;2.60;19.90;;;;;;7376710;19;20121;-70
2023/11/27 05:00:40;;;;;;;7.38;4.63;;;2.60;21.00;;;;;;7376466;19;20486;-69
2023/11/27 05:03:10;;;;;;;6.80;5.03;;;2.50;23.40;;;;;;7376785;19;20007;-69
2023/11/27 05:05:40;;;;;;;8.52;4.45;;;2.60;25.80;;;;;;7374552;19;20021;-69
2023/11/27 05:08:10;;;;;;;9.45;5.18;;;2.50;26.60;;;;;;7374468;19;20031;-69
2023/11/27 05:10:43;;;;;;;7.25;4.90;;;2.50;30.00;;;;;;7376207;19;20010;-70
2023/11/27 05:13:15;;;;;;;6.88;5.10;;;2.60;31.20;;;;;;7375101;19;20010;-69
2023/11/27 05:15:46;;;;;;;9.00;5.00;;;2.60;29.90;;;;;;7375683;19;20409;-68
2023/11/27 05:18:16;;;;;;;7.57;5.25;;;2.60;31.20;;;;;;7376370;19;20050;-70
2023/11/27 05:20:46;;;;;;;9.18;4.68;;;2.60;31.80;;;;;;7376815;19;20018;-69
2023/11/27 05:23:16;;;;;;;7.10;5.07;;;2.60;30.60;;;;;;7377629;19;20026;-68
2023/11/27 05:25:49;;;;;;;8.70;5.63;;;2.60;29.50;;;;;;7376781;19;20014;-67
2023/11/27 05:28:19;;;;;;;7.43;5.13;;;2.60;30.30;;;;;;7374592;19;20499;-69
2023/11/27 05:30:49;;;;;;;8.82;4.90;;;2.60;29.30;;;;;;7373786;19;20041;-68
2023/11/27 05:33:19;;;;;;;7.13;5.22;;;2.70;29.60;;;;;;7373659;19;20010;-68
2023/11/27 05:35:49;;;;;;;7.15;5.32;;;2.70;29.80;;;;;;7372235;19;20054;-68
2023/11/27 05:38:19;;;;;;;8.85;5.28;;;2.70;29.80;;;;;;7373239;19;20014;-68
2023/11/27 05:40:52;;;;;;;10.40;5.97;;;2.70;29.90;;;;;;7372728;19;20018;-69
2023/11/27 05:43:22;;;;;;;9.07;4.68;;;2.70;30.10;;;;;;7375544;19;20017;-68
2023/11/27 05:45:52;;;;;;;8.90;4.85;;;2.70;26.50;;;;;;7374158;19;20002;-70
2023/11/27 05:48:22;;;;;;;7.10;4.32;;;2.70;21.50;;;;;;7375708;19;20040;-70
2023/11/27 05:50:52;;;;;;;9.45;4.78;;;2.70;18.50;;;;;;7376370;19;20007;-69
2023/11/27 05:53:22;;;;;;;8.57;4.15;;;2.80;15.70;;;;;;7375381;19;20018;-68
2023/11/27 05:55:55;;;;;;;6.43;3.58;;;2.80;8.20;;;;;;7379425;19;20011;-69
2023/11/27 05:58:25;;;;;;;7.53;4.00;;;2.80;3.70;;;;;;7393478;19;20017;-69
2023/11/27 06:00:55;;;;;;;9.55;3.70;;;2.80;2.90;;;;;;7380196;19;20475;-69
2023/11/27 06:03:26;;;;;;;6.30;3.70;;;2.80;4.40;;;;;;7370743;19;20018;-69
2023/11/27 06:05:57;;;;;;;5.75;3.90;;;2.80;7.10;;;;;;7374940;19;20058;-69
2023/11/27 06:08:27;;;;;;;8.05;4.65;;;2.80;7.30;;;;;;7373245;19;20007;-69
2023/11/27 06:11:00;;;;;;;9.30;4.10;;;2.80;8.60;;;;;;7376251;19;20050;-68
2023/11/27 06:13:30;;;;;;;6.25;4.07;;;2.70;10.20;;;;;;7368931;19;20086;-69
2023/11/27 06:16:00;;;;;;;7.32;4.50;;;2.80;11.70;;;;;;7374744;19;20428;-68
2023/11/27 06:18:30;;;;;;;7.32;4.15;;;2.80;12.00;;;;;;7373743;19;20018;-69
2023/11/27 06:21:00;;;;;;;5.85;3.92;;;2.70;8.40;;;;;;7375442;19;20013;-68
2023/11/27 06:23:30;;;;;;;10.15;4.15;;;2.70;10.80;;;;;;7380360;19;20013;-68
2023/11/27 06:26:03;;;;;;;7.93;4.63;;;2.70;12.40;;;;;;7379382;19;20466;-68
2023/11/27 06:28:33;;;;;;;8.85;4.15;;;2.80;14.60;;;;;;7379306;19;20022;-69
2023/11/27 06:31:04;;;;;;;7.18;4.20;;;2.70;12.70;;;;;;7381961;19;20018;-68
2023/11/27 06:33:35;;;;;;;9.23;4.18;;;2.70;12.70;;;;;;7379607;19;20015;-69
2023/11/27 06:36:05;;;;;;;6.18;4.10;;;2.70;11.30;;;;;;7378265;19;20022;-69
2023/11/27 06:38:36;;;;;;;6.35;4.15;;;2.80;13.20;;;;;;7380758;19;20017;-69
2023/11/27 06:41:10;;;;;;;8.35;4.53;;;2.80;13.60;;;;;;7378790;19;20017;-69
2023/11/27 06:43:41;;;;;;;6.15;4.13;;;2.80;8.90;;;;;;7379767;19;20010;-71
2023/11/27 06:46:14;;;;;;;8.18;3.88;;;2.90;5.40;;;;;;7378942;19;20011;-68
2023/11/27 06:48:44;;;;;;;6.25;4.50;;;2.80;1.00;;;;;;7380195;19;20052;-68
2023/11/27 06:51:15;;;;;;;6.70;4.55;;;2.90;1.00;;;;;;7378903;19;20463;-69
2023/11/27 06:53:45;;;;;;;9.80;4.75;;;2.90;1.00;;;;;;7379535;19;20010;-69
2023/11/27 06:56:17;;;;;;;7.00;3.88;;;2.90;1.00;;;;;;7377811;19;20475;-68
2023/11/27 06:58:47;;;;;;;6.75;4.57;;;2.90;1.00;;;;;;7379915;19;20477;-69
2023/11/27 07:01:17;;;;;;;6.65;3.55;;;2.90;1.00;;;;;;7378644;19;20025;-68
2023/11/27 07:03:47;;;;;;;9.00;4.35;;;2.90;1.00;;;;;;7379449;19;20014;-69
2023/11/27 07:06:18;;;;;;;6.53;3.65;;;2.90;1.00;;;;;;7378959;19;20010;-69
2023/11/27 07:08:48;;;;;;;8.45;4.45;;;2.90;1.00;;;;;;7380137;19;20014;-68
2023/11/27 07:11:22;;;;;;;6.07;3.72;;;2.90;1.00;;;;;;7379680;19;20017;-68
2023/11/27 07:13:52;;;;;;;6.45;3.63;;;2.90;1.00;;;;;;7377176;19;20017;-69
2023/11/27 07:16:22;;;;;;;5.88;3.42;;;3.00;1.00;;;;;;7364525;19;20025;-69
2023/11/27 07:18:52;;;;;;;6.05;3.55;;;3.00;1.00;;;;;;7375762;19;20089;-70
2023/11/27 07:21:24;;;;;;;6.97;3.80;;;3.10;1.00;;;;;;7378391;19;20007;-69
2023/11/27 07:23:54;;;;;;;6.53;3.65;;;3.10;1.00;;;;;;7377703;19;20352;-69
2023/11/27 07:26:27;;;;;;;6.22;3.88;;;3.10;1.00;;;;;;7377530;19;20090;-69
2023/11/27 07:28:58;;;;;;;5.47;3.55;;;3.20;1.00;;;;;;7378673;19;20003;-68
2023/11/27 07:31:30;;;;;;;7.00;4.20;;;3.20;1.00;;;;;;7378635;19;20035;-69
2023/11/27 07:34:00;;;;;;;6.95;4.00;;;3.20;1.00;;;;;;7378117;19;20015;-68
2023/11/27 07:36:31;;;;;;;6.05;3.47;;;3.30;1.00;;;;;;7378557;19;20011;-68
2023/11/27 07:39:02;;;;;;;6.72;3.78;;;3.20;1.00;;;;;;7377758;19;20007;-69
2023/11/27 07:41:35;;;;;;;6.18;3.72;;;3.30;1.00;;;;;;7379938;19;20415;-68
2023/11/27 07:44:12;;;;;;;9.63;3.78;;;3.20;1.00;;;;;;7377524;19;20090;-69
2023/11/27 07:46:42;;;;;;;5.43;3.88;;;3.30;1.00;;;;;;7377400;19;20010;-69
2023/11/27 07:49:13;;;;;;;7.95;4.18;;;3.30;1.00;;;;;;7379357;19;20017;-69
2023/11/27 07:51:43;;;;;;;7.03;4.07;;;3.30;1.00;;;;;;7379337;19;20031;-68
2023/11/27 07:54:13;;;;;;;5.72;3.45;;;3.40;1.00;;;;;;7376867;19;20010;-69
2023/11/27 07:56:46;;;;;;;7.15;3.67;;;3.40;1.00;;;;;;7376522;19;20003;-69
2023/11/27 07:59:16;;;;;;;7.22;4.20;;;3.40;1.00;;;;;;7377867;19;20021;-69
2023/11/27 08:01:47;;;;;;;8.32;4.05;;;3.50;1.00;;;;;;7377555;19;20022;-69
2023/11/27 08:04:17;;;;;;;9.48;3.70;;;3.50;1.00;;;;;;7377982;19;20014;-68
2023/11/27 08:06:49;;;;;;;7.72;4.10;;;3.50;1.00;;;;;;7376715;19;20395;-69
2023/11/27 08:09:20;;;;;;;5.55;3.45;;;3.60;1.00;;;;;;7379135;19;20007;-70
2023/11/27 08:11:52;;;;;;;5.85;3.33;;;3.60;1.00;;;;;;7378613;19;20014;-69
2023/11/27 08:14:22;;;;;;;4.65;3.40;;;3.60;1.00;;;;;;7376848;19;20026;-68
2023/11/27 08:16:52;;;;;;;9.30;3.97;;;3.70;1.00;;;;;;7377523;19;20026;-68
2023/11/27 08:19:23;;;;;;;6.57;2.85;;;3.70;1.00;;;;;;7376850;19;20053;-68
2023/11/27 08:21:54;;;;;;;6.07;3.42;;;3.70;1.00;;;;;;7377893;19;20662;-69
2023/11/27 08:24:24;;;;;;;5.32;3.22;;;3.80;1.00;;;;;;7382411;19;20068;-70
2023/11/27 08:26:57;;;;;;;11.13;6.63;;;3.80;1.00;;;;;;7393786;19;20010;-68
2023/11/27 08:29:27;;;;;;;6.47;3.72;;;3.90;1.00;;;;;;7381623;19;20011;-69
2023/11/27 08:32:00;;;;;;;5.82;4.03;;;3.90;1.00;;;;;;7378472;19;20016;-69
2023/11/27 08:34:30;;;;;;;6.55;3.75;;;3.90;1.00;;;;;;7376438;19;20029;-69
2023/11/27 08:37:04;;;;;;;6.93;3.97;;;3.90;1.00;;;;;;7373638;19;20003;-69
2023/11/27 08:39:35;;;;;;;9.48;3.35;;;3.90;1.00;;;;;;7373634;19;20006;-67
2023/11/27 08:42:09;;;;;;;7.22;4.05;;;4.00;1.00;;;;;;7376447;19;20014;-69
2023/11/27 08:44:39;;;;;;;7.15;3.67;;;4.10;1.00;;;;;;7373020;19;20007;-68
2023/11/27 08:47:09;;;;;;;5.00;2.85;;;4.10;1.00;;;;;;7375499;19;20007;-68
2023/11/27 08:49:39;;;;;;;6.95;3.20;;;4.10;1.00;;;;;;7375713;19;20006;-68
2023/11/27 08:52:09;;;;;;;3.38;2.72;;;4.20;1.00;;;;;;7375965;19;20014;-68
2023/11/27 08:54:39;;;;;;;4.25;2.20;;;4.30;1.00;;;;;;7373282;19;20010;-68
2023/11/27 08:57:12;;;;;;;5.30;2.65;;;4.20;1.00;;;;;;7373313;19;20007;-68
2023/11/27 08:59:42;;;;;;;5.82;1.85;;;4.30;1.00;;;;;;7376536;19;20510;-69
2023/11/27 09:02:12;;;;;;;4.78;2.30;;;4.30;1.00;;;;;;7376857;19;20463;-69
2023/11/27 09:04:42;;;;;;;3.38;1.98;;;4.40;1.00;;;;;;7375487;19;20074;-69
2023/11/27 09:07:12;;;;;;;10.77;4.47;;;4.40;1.00;;;;;;7374858;19;20048;-69
2023/11/27 09:09:42;;;;;;;4.03;1.98;;;4.40;1.00;;;;;;7375579;19;20022;-69
2023/11/27 09:12:15;;;;;;;3.58;2.30;;;4.50;1.00;;;;;;7376348;19;20018;-68
2023/11/27 09:14:46;;;;;;;3.75;2.20;;;4.50;1.00;;;;;;7375097;19;20027;-69
2023/11/27 09:17:16;;;;;;;5.28;2.55;;;4.60;1.00;;;;;;7375628;19;20003;-67
2023/11/27 09:19:46;;;;;;;5.10;2.72;;;4.70;1.00;;;;;;7375201;19;20017;-68
2023/11/27 09:22:21;;;;;;;4.25;2.03;;;4.70;1.00;;;;;;7375209;19;20014;-68
2023/11/27 09:24:51;;;;;;;4.07;2.50;;;4.80;1.00;;;;;;7371438;19;20017;-68
2023/11/27 09:27:23;;;;;;;3.83;2.20;;;4.80;1.00;;;;;;7372276;19;20094;-68
2023/11/27 09:29:53;;;;;;;4.88;2.45;;;4.90;1.00;;;;;;7375793;19;20019;-69
2023/11/27 09:32:26;;;;;;;3.53;2.10;;;4.90;1.00;;;;;;7377180;19;20006;-68
2023/11/27 09:34:56;;;;;;;3.58;1.90;;;5.00;1.00;;;;;;7374805;19;20450;-68
2023/11/27 09:37:27;;;;;;;3.30;2.17;;;5.00;1.00;;;;;;7375577;19;20098;-69
2023/11/27 09:39:59;;;;;;;3.08;2.13;;;5.10;1.00;;;;;;7375623;19;20049;-69
2023/11/27 09:42:35;;;;;;;3.58;1.73;;;5.20;1.00;;;;;;7375479;19;20728;-68
2023/11/27 09:45:18;;;;;;;3.28;1.55;;;5.20;1.00;;;;;;7370614;19;20010;-68
2023/11/27 09:47:51;;;;;;;4.97;2.05;;;5.30;1.00;;;;;;7375582;19;20033;-68
2023/11/27 09:50:23;;;;;;;4.22;2.20;;;5.40;1.00;;;;;;7375342;19;20006;-69
2023/11/27 09:52:55;;;;;;;4.13;2.28;;;5.30;1.00;;;;;;7375720;19;20014;-70
2023/11/27 09:55:26;;;;;;;4.97;2.00;;;5.40;1.00;;;;;;7375701;19;20019;-68
2023/11/27 09:58:00;;;;;;;3.33;1.80;;;5.50;1.00;;;;;;7380155;19;20024;-69
2023/11/27 10:00:32;;;;;;;4.30;1.77;;;5.60;1.00;;;;;;7380643;19;20148;-69
2023/11/27 10:03:05;;;;;;;2.40;1.52;;;5.50;1.00;;;;;;7381876;19;20014;-69
2023/11/27 10:05:35;;;;;;;2.60;1.65;;;5.50;1.00;;;;;;7377886;19;20007;-68
2023/11/27 10:08:08;;;;;;;1.95;1.23;;;5.60;1.00;;;;;;7378693;19;20023;-69
2023/11/27 10:10:39;;;;;;;2.08;1.20;;;5.60;1.00;;;;;;7378937;19;20017;-68
2023/11/27 10:13:12;;;;;;;2.75;1.30;;;5.70;1.00;;;;;;7381042;19;19998;-70
2023/11/27 10:15:59;;;;;;;1.50;1.20;;;5.80;1.00;;;;;;7379410;19;20010;-69
2023/11/27 10:18:29;;;;;;;7.90;1.65;;;5.80;1.00;;;;;;7378538;19;20047;-70
2023/11/27 10:20:59;;;;;;;4.10;1.60;;;5.80;1.00;;;;;;7379518;19;20022;-69
2023/11/27 10:23:30;;;;;;;5.97;2.55;;;5.90;1.00;;;;;;7379244;19;20389;-68
2023/11/27 10:26:01;;;;;;;3.05;1.60;;;6.10;1.00;;;;;;7380063;19;20472;-68
2023/11/27 10:28:45;;;;;;;2.08;1.20;;;6.10;1.00;;;;;;7380009;19;20081;-69
2023/11/27 10:31:16;;;;;;;2.17;1.50;;;6.00;1.00;;;;;;7372472;19;20026;-69
2023/11/27 10:33:47;;;;;;;3.20;1.50;;;6.00;1.00;;;;;;7379838;19;20137;-69
2023/11/27 10:36:23;;;;;;;6.68;2.50;;;5.90;1.00;;;;;;7378445;19;20017;-69
2023/11/27 10:39:08;;;;;;;5.10;1.63;;;6.00;1.00;;;;;;7381181;19;20010;-68
2023/11/27 10:41:39;;;;;;;3.25;1.40;;;6.00;1.00;;;;;;7380796;19;20011;-69
2023/11/27 10:44:14;;;;;;;2.78;1.70;;;6.10;1.00;;;;;;7382506;19;20736;-69
2023/11/27 10:46:45;;;;;;;5.47;1.60;;;6.10;1.00;;;;;;7376536;19;19998;-69
2023/11/27 10:49:17;;;;;;;3.25;1.70;;;6.10;1.00;;;;;;7379510;19;20090;-69
2023/11/27 10:51:49;;;;;;;2.03;1.17;;;6.10;1.00;;;;;;7379913;19;20006;-68
2023/11/27 10:54:20;;;;;;;2.25;1.60;;;6.10;1.00;;;;;;7395084;19;20025;-69
2023/11/27 10:56:51;;;;;;;1.88;1.42;;;6.10;1.00;;;;;;7386313;19;20011;-69
2023/11/27 10:59:24;;;;;;;3.17;1.50;;;6.20;1.00;;;;;;7378831;19;20025;-69
2023/11/27 11:02:00;;;;;;;3.63;1.60;;;6.20;1.00;;;;;;7379246;19;20354;-69
2023/11/27 11:04:40;;;;;;;2.40;1.70;;;6.30;1.00;;;;;;7379072;19;20424;-69
2023/11/27 11:07:18;;;;;;;3.70;1.40;;;6.30;1.00;;;;;;7372772;19;20028;-69
2023/11/27 11:09:50;;;;;;;2.05;1.38;;;6.20;1.00;;;;;;7379227;19;20018;-69
2023/11/27 11:12:23;;;;;;;3.28;1.60;;;6.20;1.00;;;;;;7380886;19;20810;-69
2023/11/27 11:14:58;;;;;;;1.60;1.50;;;6.20;1.00;;;;;;7379540;19;20028;-69
2023/11/27 11:17:38;;;;;;;4.13;1.75;;;6.30;1.00;;;;;;7380606;19;20011;-69
2023/11/27 11:20:18;;;;;;;3.72;1.67;;;6.40;1.00;;;;;;7381331;19;20023;-69
2023/11/27 11:22:57;;;;;;;4.50;1.95;;;6.30;1.00;;;;;;7378204;19;20011;-70
2023/11/27 11:25:43;;;;;;;3.00;2.22;;;6.40;1.00;;;;;;7376017;19;20068;-70
2023/11/27 11:28:18;;;;;;;4.30;2.15;;;6.30;1.00;;;;;;7379113;19;20002;-69
2023/11/27 11:31:11;;;;;;;3.22;2.15;;;6.30;1.00;;;;;;7374853;19;20094;-69
2023/11/27 11:33:42;;;;;;;3.92;2.10;;;6.30;1.00;;;;;;7379408;19;20019;-68
2023/11/27 11:36:16;;;;;;;6.38;2.70;;;6.40;1.00;;;;;;7379607;19;20022;-70
2023/11/27 11:38:48;;;;;;;2.67;2.28;;;6.20;1.00;;;;;;7377837;19;20012;-68
2023/11/27 11:41:19;;;;;;;2.83;1.80;;;6.20;1.00;;;;;;7380267;19;20037;-68
2023/11/27 11:43:49;;;;;;;3.25;1.90;;;6.20;1.00;;;;;;7379047;19;20017;-69
2023/11/27 11:46:25;;;;;;;6.32;2.78;;;6.30;1.00;;;;;;7378431;19;20010;-69
2023/11/27 11:48:56;;;;;;;5.53;2.50;;;6.20;1.00;;;;;;7379112;19;20039;-70
2023/11/27 11:51:28;;;;;;;4.05;2.15;;;6.20;1.00;;;;;;7377029;19;20010;-69
2023/11/27 11:53:59;;;;;;;4.32;2.17;;;6.10;1.00;;;;;;7379612;19;20443;-68
2023/11/27 11:56:29;;;;;;;5.38;2.50;;;6.10;1.00;;;;;;7376401;19;20014;-69
2023/11/27 11:59:09;;;;;;;2.42;1.85;;;6.00;1.00;;;;;;7378736;19;20010;-69
2023/11/27 12:01:44;;;;;;;3.30;2.30;;;6.00;1.00;;;;;;7378041;19;20741;-69
2023/11/27 12:04:15;;;;;;;7.90;2.45;;;6.00;1.00;;;;;;7378278;19;20007;-70
2023/11/27 12:06:45;;;;;;;3.60;1.98;;;6.00;1.00;;;;;;7378277;19;20002;-70
2023/11/27 12:09:17;;;;;;;3.03;2.20;;;6.00;1.00;;;;;;7376764;19;20134;-69
2023/11/27 12:11:49;;;;;;;5.43;2.10;;;6.00;1.00;;;;;;7375492;19;20014;-70
2023/11/27 12:14:19;;;;;;;3.15;2.05;;;6.10;1.00;;;;;;7379354;19;20388;-68
2023/11/27 12:16:52;;;;;;;3.42;2.20;;;6.00;1.00;;;;;;7376109;19;20510;-68
2023/11/27 12:19:24;;;;;;;3.40;1.80;;;6.00;1.00;;;;;;7375184;19;20014;-69
2023/11/27 12:21:56;;;;;;;2.90;1.80;;;6.00;1.00;;;;;;7377658;19;20011;-68
2023/11/27 12:24:27;;;;;;;2.42;1.75;;;6.00;1.00;;;;;;7378185;19;20078;-69
2023/11/27 12:26:57;;;;;;;2.67;1.90;;;6.00;1.00;;;;;;7377589;19;20049;-70
2023/11/27 12:29:29;;;;;;;5.72;1.75;;;6.00;1.00;;;;;;7377708;19;20071;-70
2023/11/27 12:32:03;;;;;;;2.80;1.63;;;6.10;1.00;;;;;;7378424;19;20017;-68
2023/11/27 12:34:40;;;;;;;7.00;1.88;;;5.90;1.00;;;;;;7377019;19;20014;-68
2023/11/27 12:37:10;;;;;;;2.40;1.58;;;5.90;1.00;;;;;;7377718;19;20476;-69
2023/11/27 12:39:42;;;;;;;3.60;1.60;;;5.80;1.00;;;;;;7378291;19;20035;-69
2023/11/27 12:42:14;;;;;;;3.00;1.70;;;5.70;1.00;;;;;;7377731;19;20078;-69
2023/11/27 12:44:49;;;;;;;20.42;12.15;;;5.60;1.00;;;;;;7379454;19;20045;-69
2023/11/27 12:47:21;;;;;;;3.85;1.77;;;5.60;1.00;;;;;;7374539;19;20855;-69
2023/11/27 12:49:54;;;;;;;3.75;1.60;;;5.50;1.00;;;;;;7376971;19;20469;-70
2023/11/27 12:52:26;;;;;;;2.28;1.80;;;5.30;1.00;;;;;;7375817;19;20031;-69
2023/11/27 12:54:56;;;;;;;2.97;1.98;;;5.10;1.00;;;;;;7375695;19;20389;-69
2023/11/27 12:57:29;;;;;;;2.80;1.95;;;5.20;1.00;;;;;;7376152;19;20014;-69
2023/11/27 12:59:59;;;;;;;2.83;1.75;;;5.00;1.00;;;;;;7376569;19;20018;-69
2023/11/27 13:02:42;;;;;;;3.75;2.10;;;4.90;1.00;;;;;;7375818;19;20081;-70
2023/11/27 13:05:21;;;;;;;3.53;2.03;;;4.80;1.00;;;;;;7377015;19;20440;-69
2023/11/27 13:07:57;;;;;;;3.70;1.92;;;4.80;1.00;;;;;;7372958;19;20064;-69
2023/11/27 13:10:30;;;;;;;3.33;1.52;;;4.80;1.00;;;;;;7376201;19;20022;-69
2023/11/27 13:13:00;;;;;;;3.53;1.80;;;4.70;1.00;;;;;;7375563;19;20018;-69
2023/11/27 13:15:34;;;;;;;2.83;1.30;;;4.70;1.00;;;;;;7375244;19;20014;-69
2023/11/27 13:18:15;;;;;;;4.45;1.48;;;4.60;1.00;;;;;;7377736;19;20077;-68
2023/11/27 13:20:53;;;;;;;2.38;1.10;;;4.60;1.00;;;;;;7381799;19;20014;-70
2023/11/27 13:23:25;;;;;;;2.65;1.35;;;4.60;1.00;;;;;;7391588;19;20086;-69
2023/11/27 13:26:09;;;;;;;19.00;10.77;;;4.70;1.00;;;;;;7377534;19;20007;-68